sensor_id;sensor_type;location;lat;lon;timestamp;P1;durP1;ratioP1;P2;durP2;ratioP2
1885;SDS011;943;51.568;6.998;2022-10-10T00:01:32;6.27;;;5.30;;
1885;SDS011;943;51.568;6.998;2022-10-10T00:04:03;7.03;;;4.50;;
1885;SDS011;943;51.568;6.998;2022-10-10T00:06:31;6.87;;;5.17;;
1885;SDS011;943;51.568;6.998;2022-10-10T00:09:00;8.50;;;5.90;;
1885;SDS011;943;51.568;6.998;2022-10-10T00:11:31;9.10;;;6.80;;
1885;SDS011;943;51.568;6.998;2022-10-10T00:14:00;11.30;;;6.60;;
1885;SDS011;943;51.568;6.998;2022-10-10T00:16:28;8.57;;;6.23;;
1885;SDS011;943;51.568;6.998;2022-10-10T00:18:56;9.77;;;5.93;;
1885;SDS011;943;51.568;6.998;2022-10-10T00:21:24;10.70;;;6.87;;
1885;SDS011;943;51.568;6.998;2022-10-10T00:23:52;8.03;;;5.40;;
1885;SDS011;943;51.568;6.998;2022-10-10T00:26:19;7.77;;;6.67;;
1885;SDS011;943;51.568;6.998;2022-10-10T00:28:48;14.90;;;6.23;;
1885;SDS011;943;51.568;6.998;2022-10-10T00:31:15;8.30;;;6.00;;
1885;SDS011;943;51.568;6.998;2022-10-10T00:33:43;10.50;;;5.93;;
1885;SDS011;943;51.568;6.998;2022-10-10T00:36:11;9.33;;;6.10;;
1885;SDS011;943;51.568;6.998;2022-10-10T00:38:41;8.80;;;5.73;;
1885;SDS011;943;51.568;6.998;2022-10-10T00:41:08;8.80;;;6.00;;
1885;SDS011;943;51.568;6.998;2022-10-10T00:43:36;8.63;;;5.80;;
1885;SDS011;943;51.568;6.998;2022-10-10T00:46:04;9.03;;;6.67;;
1885;SDS011;943;51.568;6.998;2022-10-10T00:48:33;7.40;;;5.30;;
1885;SDS011;943;51.568;6.998;2022-10-10T00:51:11;8.80;;;5.47;;
1885;SDS011;943;51.568;6.998;2022-10-10T00:53:46;8.70;;;6.10;;
1885;SDS011;943;51.568;6.998;2022-10-10T00:56:30;10.70;;;5.80;;
1885;SDS011;943;51.568;6.998;2022-10-10T00:59:13;17.30;;;7.93;;
1885;SDS011;943;51.568;6.998;2022-10-10T01:01:44;8.10;;;5.73;;
1885;SDS011;943;51.568;6.998;2022-10-10T01:04:26;9.47;;;6.30;;
1885;SDS011;943;51.568;6.998;2022-10-10T01:07:12;9.30;;;5.97;;
1885;SDS011;943;51.568;6.998;2022-10-10T01:09:53;8.43;;;5.63;;
1885;SDS011;943;51.568;6.998;2022-10-10T01:18:56;8.63;;;6.37;;
1885;SDS011;943;51.568;6.998;2022-10-10T01:31:25;9.77;;;6.10;;
1885;SDS011;943;51.568;6.998;2022-10-10T01:37:17;9.87;;;6.73;;
1885;SDS011;943;51.568;6.998;2022-10-10T01:43:23;8.87;;;5.90;;
1885;SDS011;943;51.568;6.998;2022-10-10T01:45:52;9.40;;;6.20;;
1885;SDS011;943;51.568;6.998;2022-10-10T01:48:24;8.57;;;6.33;;
1885;SDS011;943;51.568;6.998;2022-10-10T01:54:34;8.07;;;6.10;;
1885;SDS011;943;51.568;6.998;2022-10-10T01:58:01;10.60;;;6.23;;
1885;SDS011;943;51.568;6.998;2022-10-10T02:01:34;10.43;;;5.97;;
1885;SDS011;943;51.568;6.998;2022-10-10T02:11:13;9.27;;;5.80;;
1885;SDS011;943;51.568;6.998;2022-10-10T02:13:47;10.20;;;7.00;;
1885;SDS011;943;51.568;6.998;2022-10-10T02:16:29;8.87;;;6.03;;
1885;SDS011;943;51.568;6.998;2022-10-10T02:19:08;8.83;;;6.10;;
1885;SDS011;943;51.568;6.998;2022-10-10T02:21:44;8.97;;;6.10;;
1885;SDS011;943;51.568;6.998;2022-10-10T02:24:17;9.87;;;6.30;;
1885;SDS011;943;51.568;6.998;2022-10-10T02:26:58;9.40;;;5.60;;
1885;SDS011;943;51.568;6.998;2022-10-10T02:29:42;9.10;;;6.43;;
1885;SDS011;943;51.568;6.998;2022-10-10T02:32:21;8.40;;;6.70;;
1885;SDS011;943;51.568;6.998;2022-10-10T02:35:07;9.30;;;5.50;;
1885;SDS011;943;51.568;6.998;2022-10-10T02:37:50;8.20;;;5.63;;
1885;SDS011;943;51.568;6.998;2022-10-10T02:40:21;7.50;;;5.37;;
1885;SDS011;943;51.568;6.998;2022-10-10T02:42:57;10.73;;;5.60;;
1885;SDS011;943;51.568;6.998;2022-10-10T02:45:32;9.63;;;5.50;;
1885;SDS011;943;51.568;6.998;2022-10-10T02:48:01;13.57;;;5.87;;
1885;SDS011;943;51.568;6.998;2022-10-10T02:50:30;7.50;;;6.00;;
1885;SDS011;943;51.568;6.998;2022-10-10T02:52:59;7.90;;;5.13;;
1885;SDS011;943;51.568;6.998;2022-10-10T02:55:27;9.57;;;6.17;;
1885;SDS011;943;51.568;6.998;2022-10-10T02:57:55;8.20;;;5.90;;
1885;SDS011;943;51.568;6.998;2022-10-10T03:00:23;12.33;;;5.90;;
1885;SDS011;943;51.568;6.998;2022-10-10T03:02:51;11.13;;;5.60;;
1885;SDS011;943;51.568;6.998;2022-10-10T03:05:19;7.87;;;5.77;;
1885;SDS011;943;51.568;6.998;2022-10-10T03:07:46;9.80;;;6.97;;
1885;SDS011;943;51.568;6.998;2022-10-10T03:10:15;10.67;;;7.10;;
1885;SDS011;943;51.568;6.998;2022-10-10T03:12:43;9.60;;;6.43;;
1885;SDS011;943;51.568;6.998;2022-10-10T03:15:10;7.87;;;5.10;;
1885;SDS011;943;51.568;6.998;2022-10-10T03:17:38;8.43;;;5.40;;
1885;SDS011;943;51.568;6.998;2022-10-10T03:20:07;10.13;;;5.97;;
1885;SDS011;943;51.568;6.998;2022-10-10T03:22:36;7.77;;;5.20;;
1885;SDS011;943;51.568;6.998;2022-10-10T03:25:04;11.07;;;7.07;;
1885;SDS011;943;51.568;6.998;2022-10-10T03:27:33;10.63;;;5.50;;
1885;SDS011;943;51.568;6.998;2022-10-10T03:30:01;8.27;;;5.90;;
1885;SDS011;943;51.568;6.998;2022-10-10T03:32:31;8.80;;;6.33;;
1885;SDS011;943;51.568;6.998;2022-10-10T03:34:59;7.10;;;5.40;;
1885;SDS011;943;51.568;6.998;2022-10-10T03:37:27;5.90;;;4.70;;
1885;SDS011;943;51.568;6.998;2022-10-10T03:39:54;14.20;;;5.80;;
1885;SDS011;943;51.568;6.998;2022-10-10T03:42:22;9.13;;;5.87;;
1885;SDS011;943;51.568;6.998;2022-10-10T03:44:50;8.43;;;5.90;;
1885;SDS011;943;51.568;6.998;2022-10-10T03:47:17;10.97;;;6.20;;
1885;SDS011;943;51.568;6.998;2022-10-10T03:49:45;11.70;;;6.40;;
1885;SDS011;943;51.568;6.998;2022-10-10T03:52:13;9.00;;;6.00;;
1885;SDS011;943;51.568;6.998;2022-10-10T03:54:41;10.83;;;5.73;;
1885;SDS011;943;51.568;6.998;2022-10-10T03:57:09;10.83;;;5.30;;
1885;SDS011;943;51.568;6.998;2022-10-10T03:59:37;8.30;;;6.20;;
1885;SDS011;943;51.568;6.998;2022-10-10T04:02:04;10.57;;;6.80;;
1885;SDS011;943;51.568;6.998;2022-10-10T04:04:32;8.80;;;6.53;;
1885;SDS011;943;51.568;6.998;2022-10-10T04:07:00;9.83;;;6.30;;
1885;SDS011;943;51.568;6.998;2022-10-10T04:09:28;9.80;;;6.00;;
1885;SDS011;943;51.568;6.998;2022-10-10T04:11:55;7.50;;;5.60;;
1885;SDS011;943;51.568;6.998;2022-10-10T04:14:24;7.77;;;5.40;;
1885;SDS011;943;51.568;6.998;2022-10-10T04:16:52;10.67;;;6.70;;
1885;SDS011;943;51.568;6.998;2022-10-10T04:19:20;8.43;;;5.90;;
1885;SDS011;943;51.568;6.998;2022-10-10T04:21:47;10.73;;;6.43;;
1885;SDS011;943;51.568;6.998;2022-10-10T04:24:16;11.27;;;6.97;;
1885;SDS011;943;51.568;6.998;2022-10-10T04:26:43;10.33;;;6.70;;
1885;SDS011;943;51.568;6.998;2022-10-10T04:29:11;11.80;;;6.20;;
1885;SDS011;943;51.568;6.998;2022-10-10T04:31:39;8.23;;;5.17;;
1885;SDS011;943;51.568;6.998;2022-10-10T04:34:06;9.27;;;6.53;;
1885;SDS011;943;51.568;6.998;2022-10-10T04:36:34;11.30;;;6.97;;
1885;SDS011;943;51.568;6.998;2022-10-10T04:39:02;10.63;;;6.10;;
1885;SDS011;943;51.568;6.998;2022-10-10T04:41:30;11.27;;;5.73;;
1885;SDS011;943;51.568;6.998;2022-10-10T04:43:58;10.53;;;6.57;;
1885;SDS011;943;51.568;6.998;2022-10-10T04:46:26;12.10;;;6.23;;
1885;SDS011;943;51.568;6.998;2022-10-10T04:48:53;8.93;;;5.90;;
1885;SDS011;943;51.568;6.998;2022-10-10T04:51:21;9.20;;;5.90;;
1885;SDS011;943;51.568;6.998;2022-10-10T04:53:49;11.20;;;6.40;;
1885;SDS011;943;51.568;6.998;2022-10-10T04:56:16;11.07;;;7.03;;
1885;SDS011;943;51.568;6.998;2022-10-10T04:58:44;13.63;;;5.83;;
1885;SDS011;943;51.568;6.998;2022-10-10T05:01:12;8.90;;;6.00;;
1885;SDS011;943;51.568;6.998;2022-10-10T05:03:40;9.03;;;6.17;;
1885;SDS011;943;51.568;6.998;2022-10-10T05:06:08;10.23;;;6.20;;
1885;SDS011;943;51.568;6.998;2022-10-10T05:08:36;12.03;;;6.97;;
1885;SDS011;943;51.568;6.998;2022-10-10T05:11:04;10.47;;;7.40;;
1885;SDS011;943;51.568;6.998;2022-10-10T05:13:32;8.10;;;6.20;;
1885;SDS011;943;51.568;6.998;2022-10-10T05:15:59;11.53;;;6.33;;
1885;SDS011;943;51.568;6.998;2022-10-10T05:18:27;10.37;;;6.60;;
1885;SDS011;943;51.568;6.998;2022-10-10T05:20:55;13.30;;;7.37;;
1885;SDS011;943;51.568;6.998;2022-10-10T05:23:28;9.40;;;6.97;;
1885;SDS011;943;51.568;6.998;2022-10-10T05:25:56;12.37;;;7.10;;
1885;SDS011;943;51.568;6.998;2022-10-10T05:28:24;11.47;;;6.33;;
1885;SDS011;943;51.568;6.998;2022-10-10T05:30:52;13.30;;;8.07;;
1885;SDS011;943;51.568;6.998;2022-10-10T05:33:19;10.63;;;7.17;;
1885;SDS011;943;51.568;6.998;2022-10-10T05:35:47;10.53;;;7.40;;
1885;SDS011;943;51.568;6.998;2022-10-10T05:38:15;12.13;;;7.33;;
1885;SDS011;943;51.568;6.998;2022-10-10T05:40:43;12.77;;;7.30;;
1885;SDS011;943;51.568;6.998;2022-10-10T05:43:11;10.63;;;6.90;;
1885;SDS011;943;51.568;6.998;2022-10-10T05:45:38;13.40;;;8.20;;
1885;SDS011;943;51.568;6.998;2022-10-10T05:48:06;14.20;;;8.03;;
1885;SDS011;943;51.568;6.998;2022-10-10T05:50:40;13.03;;;7.87;;
1885;SDS011;943;51.568;6.998;2022-10-10T05:53:16;12.90;;;8.93;;
1885;SDS011;943;51.568;6.998;2022-10-10T05:55:47;16.63;;;9.77;;
1885;SDS011;943;51.568;6.998;2022-10-10T05:58:15;13.97;;;9.10;;
1885;SDS011;943;51.568;6.998;2022-10-10T06:00:44;11.00;;;8.30;;
1885;SDS011;943;51.568;6.998;2022-10-10T06:03:13;15.70;;;8.90;;
1885;SDS011;943;51.568;6.998;2022-10-10T06:05:45;11.77;;;8.43;;
1885;SDS011;943;51.568;6.998;2022-10-10T06:08:17;11.53;;;7.70;;
1885;SDS011;943;51.568;6.998;2022-10-10T06:10:45;13.07;;;9.07;;
1885;SDS011;943;51.568;6.998;2022-10-10T06:13:15;13.20;;;8.47;;
1885;SDS011;943;51.568;6.998;2022-10-10T06:15:50;15.10;;;8.00;;
1885;SDS011;943;51.568;6.998;2022-10-10T06:18:18;13.30;;;8.37;;
1885;SDS011;943;51.568;6.998;2022-10-10T06:20:45;13.60;;;7.90;;
1885;SDS011;943;51.568;6.998;2022-10-10T06:23:13;12.90;;;7.20;;
1885;SDS011;943;51.568;6.998;2022-10-10T06:25:41;14.40;;;8.50;;
1885;SDS011;943;51.568;6.998;2022-10-10T06:28:09;14.30;;;8.23;;
1885;SDS011;943;51.568;6.998;2022-10-10T06:30:38;10.63;;;7.73;;
1885;SDS011;943;51.568;6.998;2022-10-10T06:33:10;12.97;;;8.07;;
1885;SDS011;943;51.568;6.998;2022-10-10T06:35:39;13.00;;;7.80;;
1885;SDS011;943;51.568;6.998;2022-10-10T06:38:14;15.67;;;9.00;;
1885;SDS011;943;51.568;6.998;2022-10-10T06:40:43;11.53;;;9.10;;
1885;SDS011;943;51.568;6.998;2022-10-10T06:43:12;12.90;;;8.57;;
1885;SDS011;943;51.568;6.998;2022-10-10T06:45:43;12.07;;;8.73;;
1885;SDS011;943;51.568;6.998;2022-10-10T06:48:15;10.27;;;8.23;;
1885;SDS011;943;51.568;6.998;2022-10-10T06:50:53;13.10;;;8.00;;
1885;SDS011;943;51.568;6.998;2022-10-10T06:53:28;10.97;;;6.97;;
1885;SDS011;943;51.568;6.998;2022-10-10T06:55:58;16.57;;;8.00;;
1885;SDS011;943;51.568;6.998;2022-10-10T06:58:27;14.37;;;8.30;;
1885;SDS011;943;51.568;6.998;2022-10-10T07:00:58;9.23;;;6.80;;
1885;SDS011;943;51.568;6.998;2022-10-10T07:03:30;11.77;;;7.33;;
1885;SDS011;943;51.568;6.998;2022-10-10T07:05:59;10.03;;;6.60;;
1885;SDS011;943;51.568;6.998;2022-10-10T07:08:29;7.23;;;4.90;;
1885;SDS011;943;51.568;6.998;2022-10-10T07:10:56;7.97;;;5.20;;
1885;SDS011;943;51.568;6.998;2022-10-10T07:13:24;5.67;;;4.17;;
1885;SDS011;943;51.568;6.998;2022-10-10T07:15:52;5.53;;;4.17;;
1885;SDS011;943;51.568;6.998;2022-10-10T07:18:20;8.97;;;4.63;;
1885;SDS011;943;51.568;6.998;2022-10-10T07:20:48;9.70;;;4.43;;
1885;SDS011;943;51.568;6.998;2022-10-10T07:23:16;8.00;;;4.40;;
1885;SDS011;943;51.568;6.998;2022-10-10T07:25:44;7.20;;;4.50;;
1885;SDS011;943;51.568;6.998;2022-10-10T07:28:12;10.40;;;4.70;;
1885;SDS011;943;51.568;6.998;2022-10-10T07:30:42;6.87;;;4.17;;
1885;SDS011;943;51.568;6.998;2022-10-10T07:33:12;6.37;;;4.63;;
1885;SDS011;943;51.568;6.998;2022-10-10T07:35:41;5.20;;;3.83;;
1885;SDS011;943;51.568;6.998;2022-10-10T07:38:09;8.17;;;3.90;;
1885;SDS011;943;51.568;6.998;2022-10-10T07:40:39;7.00;;;4.30;;
1885;SDS011;943;51.568;6.998;2022-10-10T07:43:07;6.30;;;3.90;;
1885;SDS011;943;51.568;6.998;2022-10-10T07:45:35;8.60;;;3.80;;
1885;SDS011;943;51.568;6.998;2022-10-10T07:48:03;12.73;;;4.20;;
1885;SDS011;943;51.568;6.998;2022-10-10T07:50:31;8.03;;;4.57;;
1885;SDS011;943;51.568;6.998;2022-10-10T07:52:59;8.00;;;4.70;;
1885;SDS011;943;51.568;6.998;2022-10-10T07:55:27;7.60;;;4.40;;
1885;SDS011;943;51.568;6.998;2022-10-10T07:57:55;9.10;;;4.17;;
1885;SDS011;943;51.568;6.998;2022-10-10T08:00:25;11.47;;;5.17;;
1885;SDS011;943;51.568;6.998;2022-10-10T08:02:53;8.67;;;4.83;;
1885;SDS011;943;51.568;6.998;2022-10-10T08:05:20;10.30;;;5.50;;
1885;SDS011;943;51.568;6.998;2022-10-10T08:07:48;6.63;;;4.40;;
1885;SDS011;943;51.568;6.998;2022-10-10T08:10:16;7.50;;;4.40;;
1885;SDS011;943;51.568;6.998;2022-10-10T08:12:44;11.07;;;6.37;;
1885;SDS011;943;51.568;6.998;2022-10-10T08:15:12;9.43;;;4.60;;
1885;SDS011;943;51.568;6.998;2022-10-10T08:17:40;9.23;;;4.63;;
1885;SDS011;943;51.568;6.998;2022-10-10T08:20:08;10.13;;;5.23;;
1885;SDS011;943;51.568;6.998;2022-10-10T08:22:36;10.20;;;4.53;;
1885;SDS011;943;51.568;6.998;2022-10-10T08:25:03;8.33;;;3.90;;
1885;SDS011;943;51.568;6.998;2022-10-10T08:27:32;6.97;;;3.97;;
1885;SDS011;943;51.568;6.998;2022-10-10T08:30:00;11.90;;;5.13;;
1885;SDS011;943;51.568;6.998;2022-10-10T08:32:28;7.07;;;3.67;;
1885;SDS011;943;51.568;6.998;2022-10-10T08:34:55;6.50;;;3.67;;
1885;SDS011;943;51.568;6.998;2022-10-10T08:37:23;5.73;;;4.00;;
1885;SDS011;943;51.568;6.998;2022-10-10T08:39:58;6.20;;;3.77;;
1885;SDS011;943;51.568;6.998;2022-10-10T08:42:29;5.57;;;3.50;;
1885;SDS011;943;51.568;6.998;2022-10-10T08:45:20;4.63;;;2.80;;
1885;SDS011;943;51.568;6.998;2022-10-10T08:47:59;7.57;;;3.90;;
1885;SDS011;943;51.568;6.998;2022-10-10T08:50:47;7.07;;;3.13;;
1885;SDS011;943;51.568;6.998;2022-10-10T08:53:34;8.07;;;3.93;;
1885;SDS011;943;51.568;6.998;2022-10-10T08:56:20;7.60;;;3.30;;
1885;SDS011;943;51.568;6.998;2022-10-10T08:59:08;5.90;;;3.10;;
1885;SDS011;943;51.568;6.998;2022-10-10T09:01:51;8.60;;;3.33;;
1885;SDS011;943;51.568;6.998;2022-10-10T09:05:20;8.23;;;3.60;;
1885;SDS011;943;51.568;6.998;2022-10-10T09:16:39;6.43;;;2.83;;
1885;SDS011;943;51.568;6.998;2022-10-10T09:19:48;8.00;;;2.83;;
1885;SDS011;943;51.568;6.998;2022-10-10T09:23:27;7.10;;;3.03;;
1885;SDS011;943;51.568;6.998;2022-10-10T09:26:18;13.50;;;2.93;;
1885;SDS011;943;51.568;6.998;2022-10-10T09:28:58;6.03;;;3.10;;
1885;SDS011;943;51.568;6.998;2022-10-10T09:31:49;8.37;;;3.73;;
1885;SDS011;943;51.568;6.998;2022-10-10T09:34:52;11.20;;;3.63;;
1885;SDS011;943;51.568;6.998;2022-10-10T09:37:57;7.83;;;3.33;;
1885;SDS011;943;51.568;6.998;2022-10-10T09:40:37;8.00;;;3.10;;
1885;SDS011;943;51.568;6.998;2022-10-10T09:43:30;9.50;;;3.60;;
1885;SDS011;943;51.568;6.998;2022-10-10T09:46:00;6.33;;;3.00;;
1885;SDS011;943;51.568;6.998;2022-10-10T09:48:38;5.37;;;3.17;;
1885;SDS011;943;51.568;6.998;2022-10-10T09:51:12;7.27;;;3.57;;
1885;SDS011;943;51.568;6.998;2022-10-10T09:53:45;7.60;;;3.73;;
1885;SDS011;943;51.568;6.998;2022-10-10T09:56:17;6.07;;;3.40;;
1885;SDS011;943;51.568;6.998;2022-10-10T10:04:54;9.07;;;3.70;;
1885;SDS011;943;51.568;6.998;2022-10-10T10:10:10;8.37;;;4.07;;
1885;SDS011;943;51.568;6.998;2022-10-10T10:12:49;9.03;;;3.37;;
1885;SDS011;943;51.568;6.998;2022-10-10T10:15:21;7.60;;;4.03;;
1885;SDS011;943;51.568;6.998;2022-10-10T10:20:46;7.67;;;3.73;;
1885;SDS011;943;51.568;6.998;2022-10-10T10:29:29;8.00;;;3.30;;
1885;SDS011;943;51.568;6.998;2022-10-10T10:32:02;6.90;;;3.67;;
1885;SDS011;943;51.568;6.998;2022-10-10T10:35:16;7.40;;;3.83;;
1885;SDS011;943;51.568;6.998;2022-10-10T10:38:15;5.53;;;3.73;;
1885;SDS011;943;51.568;6.998;2022-10-10T10:45:11;7.77;;;3.90;;
1885;SDS011;943;51.568;6.998;2022-10-10T10:57:38;9.03;;;3.60;;
1885;SDS011;943;51.568;6.998;2022-10-10T11:14:00;9.03;;;3.63;;
1885;SDS011;943;51.568;6.998;2022-10-10T11:17:34;6.23;;;4.03;;
1885;SDS011;943;51.568;6.998;2022-10-10T11:20:31;9.27;;;4.13;;
1885;SDS011;943;51.568;6.998;2022-10-10T11:27:02;10.33;;;3.80;;
1885;SDS011;943;51.568;6.998;2022-10-10T11:30:20;8.13;;;4.10;;
1885;SDS011;943;51.568;6.998;2022-10-10T11:33:01;7.33;;;4.07;;
1885;SDS011;943;51.568;6.998;2022-10-10T11:35:52;5.83;;;3.53;;
1885;SDS011;943;51.568;6.998;2022-10-10T11:38:40;6.90;;;3.57;;
1885;SDS011;943;51.568;6.998;2022-10-10T11:41:40;7.83;;;3.63;;
1885;SDS011;943;51.568;6.998;2022-10-10T11:50:11;5.47;;;3.60;;
1885;SDS011;943;51.568;6.998;2022-10-10T11:59:16;5.90;;;3.73;;
1885;SDS011;943;51.568;6.998;2022-10-10T12:02:09;10.30;;;3.47;;
1885;SDS011;943;51.568;6.998;2022-10-10T12:04:56;8.57;;;4.30;;
1885;SDS011;943;51.568;6.998;2022-10-10T12:13:26;5.23;;;3.33;;
1885;SDS011;943;51.568;6.998;2022-10-10T12:16:20;10.40;;;3.90;;
1885;SDS011;943;51.568;6.998;2022-10-10T12:19:07;7.13;;;4.17;;
1885;SDS011;943;51.568;6.998;2022-10-10T12:21:53;9.03;;;3.73;;
1885;SDS011;943;51.568;6.998;2022-10-10T12:24:35;9.63;;;4.37;;
1885;SDS011;943;51.568;6.998;2022-10-10T12:52:35;8.90;;;4.27;;
1885;SDS011;943;51.568;6.998;2022-10-10T12:55:43;11.77;;;3.93;;
1885;SDS011;943;51.568;6.998;2022-10-10T12:58:19;6.70;;;3.20;;
1885;SDS011;943;51.568;6.998;2022-10-10T13:01:25;6.60;;;3.40;;
1885;SDS011;943;51.568;6.998;2022-10-10T13:04:00;8.37;;;3.63;;
1885;SDS011;943;51.568;6.998;2022-10-10T13:09:19;9.23;;;3.83;;
1885;SDS011;943;51.568;6.998;2022-10-10T13:12:01;7.03;;;3.83;;
1885;SDS011;943;51.568;6.998;2022-10-10T13:14:41;10.50;;;3.80;;
1885;SDS011;943;51.568;6.998;2022-10-10T13:17:18;8.07;;;3.50;;
1885;SDS011;943;51.568;6.998;2022-10-10T13:20:04;7.23;;;4.30;;
1885;SDS011;943;51.568;6.998;2022-10-10T13:22:35;14.33;;;4.30;;
1885;SDS011;943;51.568;6.998;2022-10-10T13:25:03;6.03;;;2.87;;
1885;SDS011;943;51.568;6.998;2022-10-10T13:27:36;9.83;;;4.70;;
1885;SDS011;943;51.568;6.998;2022-10-10T13:30:04;11.70;;;3.83;;
1885;SDS011;943;51.568;6.998;2022-10-10T13:32:44;11.90;;;4.13;;
1885;SDS011;943;51.568;6.998;2022-10-10T13:35:14;18.30;;;4.37;;
1885;SDS011;943;51.568;6.998;2022-10-10T13:37:54;9.90;;;3.50;;
1885;SDS011;943;51.568;6.998;2022-10-10T13:40:26;8.33;;;3.43;;
1885;SDS011;943;51.568;6.998;2022-10-10T13:42:54;14.17;;;4.67;;
1885;SDS011;943;51.568;6.998;2022-10-10T13:45:31;10.50;;;4.37;;
1885;SDS011;943;51.568;6.998;2022-10-10T13:48:26;10.97;;;4.37;;
1885;SDS011;943;51.568;6.998;2022-10-10T13:51:10;15.67;;;4.10;;
1885;SDS011;943;51.568;6.998;2022-10-10T13:56:21;9.80;;;3.40;;
1885;SDS011;943;51.568;6.998;2022-10-10T13:59:09;10.03;;;3.27;;
1885;SDS011;943;51.568;6.998;2022-10-10T14:01:41;6.77;;;2.90;;
1885;SDS011;943;51.568;6.998;2022-10-10T14:04:26;8.93;;;3.53;;
1885;SDS011;943;51.568;6.998;2022-10-10T14:07:21;9.10;;;3.53;;
1885;SDS011;943;51.568;6.998;2022-10-10T14:09:56;10.07;;;3.93;;
1885;SDS011;943;51.568;6.998;2022-10-10T14:15:33;12.47;;;3.57;;
1885;SDS011;943;51.568;6.998;2022-10-10T14:18:17;6.37;;;3.03;;
1885;SDS011;943;51.568;6.998;2022-10-10T14:20:53;10.33;;;2.40;;
1885;SDS011;943;51.568;6.998;2022-10-10T14:23:23;5.60;;;2.90;;
1885;SDS011;943;51.568;6.998;2022-10-10T14:25:53;8.67;;;2.83;;
1885;SDS011;943;51.568;6.998;2022-10-10T14:28:24;11.10;;;3.50;;
1885;SDS011;943;51.568;6.998;2022-10-10T14:30:56;7.60;;;3.10;;
1885;SDS011;943;51.568;6.998;2022-10-10T14:33:26;14.13;;;3.63;;
1885;SDS011;943;51.568;6.998;2022-10-10T14:35:54;9.67;;;2.87;;
1885;SDS011;943;51.568;6.998;2022-10-10T14:38:25;8.83;;;3.93;;
1885;SDS011;943;51.568;6.998;2022-10-10T14:40:53;8.40;;;5.00;;
1885;SDS011;943;51.568;6.998;2022-10-10T14:43:21;8.70;;;4.93;;
1885;SDS011;943;51.568;6.998;2022-10-10T14:45:50;13.93;;;4.47;;
1885;SDS011;943;51.568;6.998;2022-10-10T14:48:20;12.17;;;4.67;;
1885;SDS011;943;51.568;6.998;2022-10-10T14:50:48;8.83;;;4.73;;
1885;SDS011;943;51.568;6.998;2022-10-10T14:53:17;8.40;;;3.83;;
1885;SDS011;943;51.568;6.998;2022-10-10T14:55:45;14.47;;;3.97;;
1885;SDS011;943;51.568;6.998;2022-10-10T14:58:20;13.43;;;5.07;;
1885;SDS011;943;51.568;6.998;2022-10-10T15:00:49;12.57;;;3.90;;
1885;SDS011;943;51.568;6.998;2022-10-10T15:03:19;9.10;;;4.30;;
1885;SDS011;943;51.568;6.998;2022-10-10T15:05:47;12.07;;;4.10;;
1885;SDS011;943;51.568;6.998;2022-10-10T15:08:17;14.10;;;5.00;;
1885;SDS011;943;51.568;6.998;2022-10-10T15:10:45;12.50;;;4.90;;
1885;SDS011;943;51.568;6.998;2022-10-10T15:13:14;8.63;;;4.17;;
1885;SDS011;943;51.568;6.998;2022-10-10T15:15:45;10.00;;;3.67;;
1885;SDS011;943;51.568;6.998;2022-10-10T15:18:15;10.13;;;4.60;;
1885;SDS011;943;51.568;6.998;2022-10-10T15:21:07;8.63;;;4.20;;
1885;SDS011;943;51.568;6.998;2022-10-10T15:23:38;9.80;;;3.40;;
1885;SDS011;943;51.568;6.998;2022-10-10T15:26:06;9.03;;;3.57;;
1885;SDS011;943;51.568;6.998;2022-10-10T15:28:34;8.63;;;3.40;;
1885;SDS011;943;51.568;6.998;2022-10-10T15:31:02;7.73;;;3.70;;
1885;SDS011;943;51.568;6.998;2022-10-10T15:33:31;6.40;;;3.70;;
1885;SDS011;943;51.568;6.998;2022-10-10T15:36:02;13.30;;;3.57;;
1885;SDS011;943;51.568;6.998;2022-10-10T15:38:37;6.27;;;3.90;;
1885;SDS011;943;51.568;6.998;2022-10-10T15:41:06;8.33;;;3.63;;
1885;SDS011;943;51.568;6.998;2022-10-10T15:43:48;11.07;;;4.30;;
1885;SDS011;943;51.568;6.998;2022-10-10T15:46:28;8.30;;;4.30;;
1885;SDS011;943;51.568;6.998;2022-10-10T15:48:58;6.33;;;4.10;;
1885;SDS011;943;51.568;6.998;2022-10-10T15:51:28;9.50;;;4.10;;
1885;SDS011;943;51.568;6.998;2022-10-10T15:53:57;8.43;;;4.50;;
1885;SDS011;943;51.568;6.998;2022-10-10T15:56:29;9.43;;;4.50;;
1885;SDS011;943;51.568;6.998;2022-10-10T15:59:00;10.30;;;4.93;;
1885;SDS011;943;51.568;6.998;2022-10-10T16:01:30;13.10;;;6.03;;
1885;SDS011;943;51.568;6.998;2022-10-10T16:04:00;10.80;;;7.00;;
1885;SDS011;943;51.568;6.998;2022-10-10T16:06:30;15.60;;;7.10;;
1885;SDS011;943;51.568;6.998;2022-10-10T16:08:58;14.10;;;8.10;;
1885;SDS011;943;51.568;6.998;2022-10-10T16:11:47;11.90;;;9.00;;
1885;SDS011;943;51.568;6.998;2022-10-10T16:14:15;15.63;;;9.37;;
1885;SDS011;943;51.568;6.998;2022-10-10T16:16:43;18.87;;;10.30;;
1885;SDS011;943;51.568;6.998;2022-10-10T16:19:10;16.40;;;10.63;;
1885;SDS011;943;51.568;6.998;2022-10-10T16:21:38;16.17;;;10.30;;
1885;SDS011;943;51.568;6.998;2022-10-10T16:24:07;12.27;;;9.77;;
1885;SDS011;943;51.568;6.998;2022-10-10T16:26:36;15.80;;;10.37;;
1885;SDS011;943;51.568;6.998;2022-10-10T16:29:05;11.47;;;8.40;;
1885;SDS011;943;51.568;6.998;2022-10-10T16:31:36;13.50;;;9.93;;
1885;SDS011;943;51.568;6.998;2022-10-10T16:34:05;16.70;;;9.43;;
1885;SDS011;943;51.568;6.998;2022-10-10T16:36:34;15.60;;;9.50;;
1885;SDS011;943;51.568;6.998;2022-10-10T16:39:07;19.27;;;10.60;;
1885;SDS011;943;51.568;6.998;2022-10-10T16:41:35;14.37;;;10.43;;
1885;SDS011;943;51.568;6.998;2022-10-10T16:44:18;14.70;;;9.73;;
1885;SDS011;943;51.568;6.998;2022-10-10T16:46:46;21.03;;;10.03;;
1885;SDS011;943;51.568;6.998;2022-10-10T16:49:13;16.37;;;9.30;;
1885;SDS011;943;51.568;6.998;2022-10-10T16:51:46;16.50;;;10.30;;
1885;SDS011;943;51.568;6.998;2022-10-10T16:54:14;15.27;;;9.30;;
1885;SDS011;943;51.568;6.998;2022-10-10T16:56:43;18.47;;;11.00;;
1885;SDS011;943;51.568;6.998;2022-10-10T16:59:11;14.73;;;10.70;;
1885;SDS011;943;51.568;6.998;2022-10-10T17:01:38;19.43;;;11.07;;
1885;SDS011;943;51.568;6.998;2022-10-10T17:04:06;10.57;;;9.50;;
1885;SDS011;943;51.568;6.998;2022-10-10T17:06:34;8.10;;;6.37;;
1885;SDS011;943;51.568;6.998;2022-10-10T17:09:05;13.30;;;6.57;;
1885;SDS011;943;51.568;6.998;2022-10-10T17:11:36;6.97;;;4.80;;
1885;SDS011;943;51.568;6.998;2022-10-10T17:14:04;6.70;;;3.37;;
1885;SDS011;943;51.568;6.998;2022-10-10T17:16:32;7.00;;;2.60;;
1885;SDS011;943;51.568;6.998;2022-10-10T17:19:20;3.83;;;2.27;;
1885;SDS011;943;51.568;6.998;2022-10-10T17:21:48;5.00;;;1.83;;
1885;SDS011;943;51.568;6.998;2022-10-10T17:24:16;4.60;;;2.07;;
1885;SDS011;943;51.568;6.998;2022-10-10T17:26:44;5.70;;;2.30;;
1885;SDS011;943;51.568;6.998;2022-10-10T17:29:11;6.53;;;2.00;;
1885;SDS011;943;51.568;6.998;2022-10-10T17:31:39;5.30;;;2.67;;
1885;SDS011;943;51.568;6.998;2022-10-10T17:34:08;8.57;;;2.83;;
1885;SDS011;943;51.568;6.998;2022-10-10T17:36:35;6.20;;;1.50;;
1885;SDS011;943;51.568;6.998;2022-10-10T17:39:03;4.63;;;1.80;;
1885;SDS011;943;51.568;6.998;2022-10-10T17:41:32;5.50;;;2.20;;
1885;SDS011;943;51.568;6.998;2022-10-10T17:44:02;9.17;;;2.13;;
1885;SDS011;943;51.568;6.998;2022-10-10T17:46:31;6.33;;;2.10;;
1885;SDS011;943;51.568;6.998;2022-10-10T17:49:03;6.77;;;1.80;;
1885;SDS011;943;51.568;6.998;2022-10-10T17:51:34;5.27;;;2.30;;
1885;SDS011;943;51.568;6.998;2022-10-10T17:54:06;5.90;;;1.67;;
1885;SDS011;943;51.568;6.998;2022-10-10T17:56:35;7.50;;;3.30;;
1885;SDS011;943;51.568;6.998;2022-10-10T17:59:04;9.20;;;1.90;;
1885;SDS011;943;51.568;6.998;2022-10-10T18:01:35;6.50;;;1.77;;
1885;SDS011;943;51.568;6.998;2022-10-10T18:04:05;13.37;;;2.53;;
1885;SDS011;943;51.568;6.998;2022-10-10T18:06:34;10.00;;;2.40;;
1885;SDS011;943;51.568;6.998;2022-10-10T18:09:03;7.20;;;1.80;;
1885;SDS011;943;51.568;6.998;2022-10-10T18:11:31;10.30;;;1.87;;
1885;SDS011;943;51.568;6.998;2022-10-10T18:13:58;7.03;;;2.73;;
1885;SDS011;943;51.568;6.998;2022-10-10T18:16:28;5.87;;;1.90;;
1885;SDS011;943;51.568;6.998;2022-10-10T18:19:00;13.47;;;3.00;;
1885;SDS011;943;51.568;6.998;2022-10-10T18:21:33;7.80;;;1.87;;
1885;SDS011;943;51.568;6.998;2022-10-10T18:24:01;9.40;;;3.40;;
1885;SDS011;943;51.568;6.998;2022-10-10T18:26:30;12.17;;;1.93;;